createdAt,value
2018-01-21T00:02:41.468Z,3.30
2018-01-21T00:05:13.413Z,3.30
2018-01-21T00:07:43.956Z,3.30
2018-01-21T00:10:22.429Z,3.40
2018-01-21T00:13:05.541Z,3.40
2018-01-21T00:15:37.686Z,3.40
2018-01-21T00:18:10.031Z,3.30
2018-01-21T00:20:38.541Z,3.20
2018-01-21T00:23:12.143Z,3.10
2018-01-21T00:25:48.728Z,3.00
2018-01-21T00:28:26.717Z,2.90
2018-01-21T00:30:55.852Z,3.00
2018-01-21T00:33:39.272Z,3.00
2018-01-21T00:36:14.085Z,3.00
2018-01-21T00:38:49.549Z,3.10
2018-01-21T00:41:18.740Z,3.10
2018-01-21T00:43:53.196Z,3.10
2018-01-21T00:46:32.163Z,3.10
2018-01-21T00:49:11.760Z,3.20
2018-01-21T00:51:45.564Z,3.20
2018-01-21T00:54:28.211Z,3.20
2018-01-21T00:56:59.591Z,3.20
2018-01-21T00:59:33.139Z,3.20
2018-01-21T01:02:08.620Z,3.30
2018-01-21T01:04:43.460Z,3.30
2018-01-21T01:07:15.847Z,3.30
2018-01-21T01:09:47.501Z,3.40
2018-01-21T01:12:23.117Z,3.40
2018-01-21T01:14:59.364Z,3.40
2018-01-21T01:17:35.302Z,3.50
2018-01-21T01:20:17.734Z,3.50
2018-01-21T01:22:49.544Z,4.20
2018-01-21T01:25:21.951Z,4.20
2018-01-21T01:28:04.776Z,4.60
2018-01-21T01:30:33.077Z,5.00
2018-01-21T01:33:06.121Z,5.70
2018-01-21T01:35:45.176Z,5.70
2018-01-21T01:38:14.841Z,5.90
2018-01-21T01:40:43.971Z,6.00
2018-01-21T01:43:18.326Z,5.90
2018-01-21T01:45:50.157Z,6.00
2018-01-21T01:48:20.575Z,5.90
2018-01-21T01:50:53.915Z,6.10
2018-01-21T01:53:27.056Z,6.00
2018-01-21T01:55:56.083Z,6.00
2018-01-21T01:58:25.648Z,6.00
2018-01-21T02:00:53.848Z,6.00
2018-01-21T02:06:03.882Z,5.90
2018-01-21T02:08:36.823Z,5.80
2018-01-21T02:11:10.291Z,5.50
2018-01-21T02:13:54.998Z,5.50
2018-01-21T02:16:25.893Z,5.40
2018-01-21T02:19:03.143Z,5.30
2018-01-21T02:21:33.103Z,5.30
2018-01-21T02:24:03.567Z,5.20
2018-01-21T02:26:41.688Z,5.10
2018-01-21T02:29:24.683Z,5.00
2018-01-21T02:32:07.813Z,4.90
2018-01-21T02:34:36.557Z,4.80
2018-01-21T02:37:16.590Z,4.80
2018-01-21T02:39:49.265Z,4.70
2018-01-21T02:42:30.151Z,4.70
2018-01-21T02:45:00.107Z,4.70
2018-01-21T02:47:36.442Z,4.60
2018-01-21T02:50:10.410Z,4.60
2018-01-21T02:52:50.423Z,4.60
2018-01-21T02:55:35.058Z,4.50
2018-01-21T02:58:12.899Z,4.50
2018-01-21T03:01:01.328Z,4.50
2018-01-21T03:03:32.304Z,4.50
2018-01-21T03:06:02.814Z,4.40
2018-01-21T03:08:36.016Z,4.40
2018-01-21T03:11:06.634Z,4.30
2018-01-21T03:13:46.666Z,4.30
2018-01-21T03:16:15.627Z,4.20
2018-01-21T03:18:48.204Z,4.30
2018-01-21T03:21:22.547Z,4.30
2018-01-21T03:24:02.338Z,4.30
2018-01-21T03:26:34.861Z,4.30
2018-01-21T03:29:13.002Z,4.20
2018-01-21T03:31:42.985Z,4.10
2018-01-21T03:34:13.614Z,4.10
2018-01-21T03:36:48.811Z,4.10
2018-01-21T03:39:32.436Z,4.00
2018-01-21T03:42:01.792Z,4.00
2018-01-21T03:44:36.787Z,4.10
2018-01-21T03:47:13.010Z,4.00
2018-01-21T03:49:45.026Z,3.90
2018-01-21T03:52:17.731Z,3.90
2018-01-21T03:54:57.641Z,3.80
2018-01-21T03:57:29.379Z,3.80
2018-01-21T04:00:07.436Z,3.90
2018-01-21T04:02:41.570Z,3.90
2018-01-21T04:05:09.810Z,3.90
2018-01-21T04:07:37.790Z,3.80
2018-01-21T04:10:08.911Z,3.90
2018-01-21T04:12:39.389Z,4.10
2018-01-21T04:15:11.379Z,4.10
2018-01-21T04:17:40.124Z,4.10
2018-01-21T04:20:16.493Z,4.10
2018-01-21T04:22:55.882Z,4.10
2018-01-21T04:25:25.347Z,4.00
2018-01-21T04:27:55.250Z,4.00
2018-01-21T04:30:32.240Z,4.00
2018-01-21T04:33:04.508Z,4.00
2018-01-21T04:35:39.861Z,3.90
2018-01-21T04:38:16.989Z,3.90
2018-01-21T04:40:51.510Z,3.80
2018-01-21T04:43:26.003Z,3.80
2018-01-21T04:45:54.752Z,3.80
2018-01-21T04:48:25.814Z,3.80
2018-01-21T04:50:58.295Z,3.80
2018-01-21T04:53:42.645Z,3.90
2018-01-21T04:56:15.063Z,4.20
2018-01-21T04:58:43.089Z,4.20
2018-01-21T05:01:24.189Z,4.30
2018-01-21T05:03:56.960Z,4.20
2018-01-21T05:06:33.896Z,4.20
2018-01-21T05:09:18.258Z,4.10
2018-01-21T05:11:55.075Z,4.00
2018-01-21T05:14:36.925Z,4.00
2018-01-21T05:17:16.150Z,4.00
2018-01-21T05:19:49.358Z,4.00
2018-01-21T05:22:18.410Z,4.00
2018-01-21T05:24:51.093Z,4.10
2018-01-21T05:27:19.190Z,4.10
2018-01-21T05:29:53.473Z,4.10
2018-01-21T05:32:21.466Z,4.10
2018-01-21T05:34:49.785Z,4.20
2018-01-21T05:37:24.465Z,4.20
2018-01-21T05:39:55.593Z,4.20
2018-01-21T05:42:38.718Z,4.20
2018-01-21T05:45:07.422Z,4.20
2018-01-21T05:47:39.100Z,4.20
2018-01-21T05:50:11.143Z,4.30
2018-01-21T05:52:42.835Z,4.40
2018-01-21T05:55:35.741Z,4.40
2018-01-21T05:58:08.613Z,4.40
2018-01-21T06:00:36.898Z,4.40
2018-01-21T06:06:20.354Z,4.40
2018-01-21T06:08:48.266Z,4.40
2018-01-21T06:11:17.045Z,4.50
2018-01-21T06:13:47.261Z,4.40
2018-01-21T06:16:17.698Z,4.40
2018-01-21T06:18:57.519Z,4.40
2018-01-21T06:21:26.199Z,4.40
2018-01-21T06:23:54.163Z,4.40
2018-01-21T06:26:22.025Z,4.40
2018-01-21T06:28:49.770Z,4.40
2018-01-21T06:31:17.580Z,4.40
2018-01-21T06:33:45.616Z,4.50
2018-01-21T06:36:13.492Z,4.50
2018-01-21T06:38:41.348Z,4.50
2018-01-21T06:41:10.057Z,4.50
2018-01-21T06:43:39.369Z,4.60
2018-01-21T06:46:07.305Z,4.70
2018-01-21T06:48:35.181Z,4.70
2018-01-21T06:51:03.034Z,4.70
2018-01-21T06:53:30.915Z,4.70
2018-01-21T06:55:58.700Z,4.70
2018-01-21T06:58:26.634Z,4.70
2018-01-21T07:00:54.505Z,4.70
2018-01-21T07:03:22.253Z,4.70
2018-01-21T07:05:50.383Z,4.70
2018-01-21T07:08:24.040Z,4.60
2018-01-21T07:10:52.010Z,4.50
2018-01-21T07:13:19.977Z,4.40
2018-01-21T07:15:47.932Z,4.40
2018-01-21T07:18:15.822Z,4.30
2018-01-21T07:20:43.680Z,4.30
2018-01-21T07:23:12.279Z,4.30
2018-01-21T07:25:40.232Z,4.20
2018-01-21T07:28:08.965Z,4.00
2018-01-21T07:30:37.790Z,4.00
2018-01-21T07:33:05.771Z,4.00
2018-01-21T07:35:34.996Z,4.10
2018-01-21T07:38:02.912Z,4.20
2018-01-21T07:40:30.817Z,4.20
2018-01-21T07:42:59.616Z,4.20
2018-01-21T07:45:27.538Z,4.10
2018-01-21T07:47:55.301Z,4.00
2018-01-21T07:50:23.112Z,4.00
2018-01-21T07:52:52.007Z,4.00
2018-01-21T07:55:20.181Z,3.90
2018-01-21T07:57:48.024Z,4.00
2018-01-21T08:00:15.967Z,4.00
2018-01-21T08:02:44.164Z,4.10
2018-01-21T08:05:12.550Z,4.10
2018-01-21T08:07:41.026Z,4.10
2018-01-21T08:10:18.397Z,4.10
2018-01-21T08:12:51.831Z,4.00
2018-01-21T08:15:19.712Z,4.00
2018-01-21T08:17:48.740Z,3.90
2018-01-21T08:20:18.447Z,3.90
2018-01-21T08:22:47.599Z,3.90
2018-01-21T08:25:16.602Z,3.90
2018-01-21T08:27:45.563Z,3.80
2018-01-21T08:30:15.360Z,3.80
2018-01-21T08:32:43.552Z,3.90
2018-01-21T08:35:17.192Z,3.90
2018-01-21T08:37:52.296Z,3.80
2018-01-21T08:40:28.108Z,3.80
2018-01-21T08:42:56.688Z,3.80
2018-01-21T08:45:24.792Z,3.60
2018-01-21T08:47:53.184Z,3.60
2018-01-21T08:50:21.785Z,3.50
2018-01-21T08:52:50.050Z,3.50
2018-01-21T08:55:21.260Z,3.40
2018-01-21T08:57:49.889Z,3.40
2018-01-21T09:00:24.996Z,3.30
2018-01-21T09:03:02.737Z,3.30
2018-01-21T09:05:36.157Z,3.20
2018-01-21T09:08:04.998Z,3.20
2018-01-21T09:10:32.785Z,3.10
2018-01-21T09:13:01.985Z,3.10
2018-01-21T09:15:31.654Z,3.00
2018-01-21T09:17:59.433Z,3.00
2018-01-21T09:20:27.313Z,3.00
2018-01-21T09:22:55.352Z,3.00
2018-01-21T09:25:23.333Z,3.00
2018-01-21T09:27:51.394Z,3.00
2018-01-21T09:30:19.562Z,3.00
2018-01-21T09:32:47.546Z,3.00
2018-01-21T09:35:15.421Z,3.10
2018-01-21T09:37:43.531Z,3.00
2018-01-21T09:40:12.263Z,3.10
2018-01-21T09:42:40.363Z,3.10
2018-01-21T09:45:09.037Z,3.10
2018-01-21T09:47:38.112Z,3.10
2018-01-21T09:50:06.729Z,3.20
2018-01-21T09:52:40.705Z,3.20
2018-01-21T09:55:09.767Z,3.10
2018-01-21T09:57:38.829Z,3.20
2018-01-21T10:00:07.605Z,3.20
2018-01-21T10:02:37.029Z,3.20
2018-01-21T10:05:06.906Z,3.30
2018-01-21T10:07:37.122Z,3.20
2018-01-21T10:10:06.625Z,3.30
2018-01-21T10:12:34.879Z,3.30
2018-01-21T10:15:03.120Z,3.30
2018-01-21T10:17:31.958Z,3.40
2018-01-21T10:19:59.947Z,3.30
2018-01-21T10:22:27.797Z,3.50
2018-01-21T10:24:56.396Z,3.60
2018-01-21T10:27:24.382Z,3.70
2018-01-21T10:29:52.444Z,3.80
2018-01-21T10:32:20.397Z,3.80
2018-01-21T10:34:48.581Z,3.70
2018-01-21T10:37:18.168Z,3.80
2018-01-21T10:39:50.014Z,3.90
2018-01-21T10:42:24.805Z,4.00
2018-01-21T10:44:56.148Z,4.20
2018-01-21T10:47:24.712Z,4.20
2018-01-21T10:49:52.893Z,4.20
2018-01-21T10:52:20.740Z,4.20
2018-01-21T10:54:49.132Z,4.40
2018-01-21T10:57:18.204Z,4.50
2018-01-21T10:59:46.172Z,4.70
2018-01-21T11:02:14.140Z,5.00
2018-01-21T11:04:41.922Z,5.40
2018-01-21T11:07:10.201Z,5.50
2018-01-21T11:09:38.087Z,5.50
2018-01-21T11:12:13.079Z,5.20
2018-01-21T11:14:41.107Z,5.10
2018-01-21T11:17:10.906Z,4.70
2018-01-21T11:19:39.510Z,4.40
2018-01-21T11:22:08.820Z,4.40
2018-01-21T11:24:52.689Z,4.30
2018-01-21T11:27:20.677Z,4.30
2018-01-21T11:29:48.913Z,4.20
2018-01-21T11:32:17.660Z,4.30
2018-01-21T11:34:45.797Z,4.30
2018-01-21T11:37:19.756Z,4.30
2018-01-21T11:39:48.595Z,4.20
2018-01-21T11:42:18.817Z,4.20
2018-01-21T11:44:47.398Z,4.20
2018-01-21T11:47:16.165Z,4.30
2018-01-21T11:49:45.318Z,4.40
2018-01-21T11:52:14.374Z,4.40
2018-01-21T11:54:45.130Z,4.40
2018-01-21T11:57:13.287Z,4.50
2018-01-21T11:59:43.581Z,4.60
2018-01-21T12:02:11.881Z,4.60
2018-01-21T12:04:44.433Z,4.50
2018-01-21T12:07:12.345Z,4.40
2018-01-21T12:09:40.318Z,4.30
2018-01-21T12:12:08.208Z,4.40
2018-01-21T12:14:36.871Z,4.30
2018-01-21T12:17:06.076Z,4.30
2018-01-21T12:19:35.242Z,4.20
2018-01-21T12:22:04.134Z,4.10
2018-01-21T12:24:44.206Z,4.00
2018-01-21T12:27:13.895Z,4.10
2018-01-21T12:29:45.337Z,4.00
2018-01-21T12:32:19.969Z,4.00
2018-01-21T12:34:50.352Z,3.90
2018-01-21T12:37:19.126Z,4.00
2018-01-21T12:39:48.280Z,4.00
2018-01-21T12:42:16.353Z,4.00
2018-01-21T12:44:48.928Z,4.20
2018-01-21T12:47:18.357Z,4.30
2018-01-21T12:49:47.631Z,4.40
2018-01-21T12:52:15.522Z,4.30
2018-01-21T12:54:43.773Z,4.30
2018-01-21T12:57:12.598Z,4.30
2018-01-21T12:59:40.483Z,4.30
2018-01-21T13:02:09.145Z,4.30
2018-01-21T13:04:37.078Z,4.30
2018-01-21T13:07:04.966Z,4.30
2018-01-21T13:09:33.221Z,4.40
2018-01-21T13:12:01.295Z,4.40
2018-01-21T13:14:29.264Z,4.30
2018-01-21T13:16:57.247Z,4.30
2018-01-21T13:19:25.200Z,4.40
2018-01-21T13:21:55.135Z,4.40
2018-01-21T13:24:24.840Z,4.30
2018-01-21T13:26:53.306Z,4.30
2018-01-21T13:29:23.346Z,4.30
2018-01-21T13:31:55.263Z,4.20
2018-01-21T13:34:23.458Z,4.20
2018-01-21T13:36:51.427Z,4.40
2018-01-21T13:39:19.618Z,4.50
2018-01-21T13:41:47.489Z,4.40
2018-01-21T13:44:15.438Z,4.30
2018-01-21T13:46:43.329Z,4.30
2018-01-21T13:49:12.097Z,4.20
2018-01-21T13:51:40.761Z,4.20
2018-01-21T13:54:08.661Z,4.10
2018-01-21T13:56:36.640Z,4.10
2018-01-21T13:59:05.739Z,4.00
2018-01-21T14:01:33.711Z,4.00
2018-01-21T14:04:01.471Z,4.00
2018-01-21T14:06:29.324Z,4.00
2018-01-21T14:08:57.308Z,4.10
2018-01-21T14:11:25.264Z,4.00
2018-01-21T14:13:53.117Z,4.00
2018-01-21T14:16:20.992Z,3.90
2018-01-21T14:18:48.858Z,3.90
2018-01-21T14:21:16.830Z,3.90
2018-01-21T14:23:45.817Z,3.90
2018-01-21T14:26:13.769Z,3.80
2018-01-21T14:28:41.675Z,3.80
2018-01-21T14:31:13.438Z,3.80
2018-01-21T14:33:44.905Z,3.80
2018-01-21T14:36:13.844Z,3.80
2018-01-21T14:38:45.754Z,3.80
2018-01-21T14:41:23.671Z,3.80
2018-01-21T14:43:55.623Z,3.80
2018-01-21T14:46:24.081Z,3.80
2018-01-21T14:48:54.748Z,3.70
2018-01-21T14:51:24.118Z,3.70
2018-01-21T14:53:53.853Z,3.80
2018-01-21T14:56:26.562Z,3.70
2018-01-21T14:58:56.789Z,3.70
2018-01-21T15:01:25.918Z,3.70
2018-01-21T15:03:59.699Z,3.70
2018-01-21T15:06:33.965Z,3.70
2018-01-21T15:09:07.752Z,3.60
2018-01-21T15:11:37.510Z,3.60
2018-01-21T15:14:10.414Z,3.60
2018-01-21T15:16:44.420Z,3.60
2018-01-21T15:19:12.753Z,3.60
2018-01-21T15:21:42.461Z,3.50
2018-01-21T15:24:26.440Z,3.50
2018-01-21T15:26:57.289Z,3.50
2018-01-21T15:29:25.529Z,3.40
2018-01-21T15:31:53.832Z,3.40
2018-01-21T15:34:22.086Z,3.40
2018-01-21T15:36:50.040Z,3.30
2018-01-21T15:39:18.998Z,3.30
2018-01-21T15:41:47.797Z,3.30
2018-01-21T15:44:15.864Z,3.20
2018-01-21T15:46:44.641Z,3.20
2018-01-21T15:49:12.797Z,3.20
2018-01-21T15:51:40.928Z,3.20
2018-01-21T15:54:09.140Z,3.10
2018-01-21T15:56:37.112Z,3.10
2018-01-21T15:59:05.108Z,3.00
2018-01-21T16:01:33.085Z,3.00
2018-01-21T16:04:00.958Z,2.90
2018-01-21T16:06:29.708Z,2.80
2018-01-21T16:08:57.900Z,2.80
2018-01-21T16:11:25.873Z,2.70
2018-01-21T16:13:55.303Z,2.60
2018-01-21T16:16:24.064Z,2.60
2018-01-21T16:18:53.998Z,2.50
2018-01-21T16:21:23.262Z,2.50
2018-01-21T16:23:51.289Z,2.50
2018-01-21T16:26:19.430Z,2.50
2018-01-21T16:28:48.011Z,2.40
2018-01-21T16:31:16.160Z,2.40
2018-01-21T16:33:44.433Z,2.40
2018-01-21T16:36:18.442Z,2.40
2018-01-21T16:38:55.417Z,2.40
2018-01-21T16:41:23.503Z,2.40
2018-01-21T16:43:51.906Z,2.40
2018-01-21T16:46:20.884Z,2.60
2018-01-21T16:48:49.207Z,2.60
2018-01-21T16:51:17.792Z,2.50
2018-01-21T16:53:46.097Z,2.40
2018-01-21T16:56:14.250Z,2.40
2018-01-21T16:58:42.241Z,2.30
2018-01-21T17:01:10.137Z,2.30
2018-01-21T17:03:38.182Z,2.30
2018-01-21T17:06:07.329Z,2.40
2018-01-21T17:08:35.979Z,2.40
2018-01-21T17:11:04.742Z,2.20
2018-01-21T17:13:32.839Z,2.40
2018-01-21T17:16:01.617Z,2.40
2018-01-21T17:18:30.500Z,2.40
2018-01-21T17:21:19.883Z,2.40
2018-01-21T17:23:48.681Z,2.30
2018-01-21T17:26:17.138Z,2.30
2018-01-21T17:29:02.993Z,2.20
2018-01-21T17:31:37.770Z,2.20
2018-01-21T17:34:34.791Z,2.20
2018-01-21T17:37:13.502Z,2.20
2018-01-21T17:39:58.726Z,2.20
2018-01-21T17:42:38.055Z,2.20
2018-01-21T17:48:08.059Z,2.20
2018-01-21T17:54:18.882Z,2.20
2018-01-21T17:56:58.507Z,2.10
2018-01-21T18:17:45.450Z,1.90
2018-01-21T18:20:13.399Z,2.00
2018-01-21T18:22:53.710Z,2.00
2018-01-21T18:25:25.113Z,2.00
2018-01-21T18:27:56.847Z,2.00
2018-01-21T18:30:26.418Z,2.00
2018-01-21T18:33:05.272Z,2.00
2018-01-21T18:35:43.695Z,2.00
2018-01-21T18:38:11.612Z,2.00
2018-01-21T18:40:43.476Z,2.10
2018-01-21T18:43:15.230Z,2.00
2018-01-21T18:45:48.998Z,2.10
2018-01-21T18:48:18.500Z,2.10
2018-01-21T18:50:52.614Z,2.10
2018-01-21T18:53:20.513Z,2.20
2018-01-21T18:55:48.528Z,2.20
2018-01-21T18:58:16.448Z,2.10
2018-01-21T19:00:44.388Z,2.10
2018-01-21T19:03:12.353Z,2.10
2018-01-21T19:05:40.302Z,2.10
2018-01-21T19:08:08.192Z,2.20
2018-01-21T19:10:36.177Z,2.20
2018-01-21T19:13:04.270Z,2.20
2018-01-21T19:15:35.432Z,2.20
2018-01-21T19:18:04.300Z,2.30
2018-01-21T19:20:33.010Z,2.30
2018-01-21T19:23:00.831Z,2.30
2018-01-21T19:25:28.991Z,2.40
2018-01-21T19:27:57.408Z,2.40
2018-01-21T19:30:26.176Z,2.40
2018-01-21T19:32:54.142Z,2.40
2018-01-21T19:35:22.199Z,2.40
2018-01-21T19:37:50.162Z,2.30
2018-01-21T19:40:34.559Z,2.40
2018-01-21T19:43:12.013Z,2.30
2018-01-21T19:45:40.294Z,2.30
2018-01-21T19:48:08.408Z,2.30
2018-01-21T19:50:36.549Z,2.20
2018-01-21T19:53:04.701Z,2.10
2018-01-21T19:55:32.593Z,2.10
2018-01-21T19:58:00.744Z,2.00
2018-01-21T20:00:28.813Z,2.00
2018-01-21T20:02:56.807Z,1.90
2018-01-21T20:05:24.691Z,1.90
2018-01-21T20:07:53.435Z,1.80
2018-01-21T20:10:21.417Z,1.70
2018-01-21T20:12:51.438Z,1.70
2018-01-21T20:15:19.922Z,1.70
2018-01-21T20:17:47.897Z,1.70
2018-01-21T20:20:15.901Z,1.60
2018-01-21T20:22:44.701Z,1.50
2018-01-21T20:25:12.757Z,1.50
2018-01-21T20:27:41.621Z,1.50
2018-01-21T20:30:09.681Z,1.50
2018-01-21T20:32:37.637Z,1.50
2018-01-21T20:35:05.531Z,1.40
2018-01-21T20:37:34.111Z,1.30
2018-01-21T20:40:02.060Z,1.30
2018-01-21T20:42:31.668Z,1.30
2018-01-21T20:44:59.464Z,1.30
2018-01-21T20:47:27.261Z,1.20
2018-01-21T20:49:55.696Z,1.20
2018-01-21T20:52:29.110Z,1.10
2018-01-21T20:54:57.773Z,1.10
2018-01-21T20:57:25.640Z,1.10
2018-01-21T20:59:53.516Z,1.10
2018-01-21T21:02:22.232Z,1.00
2018-01-21T21:04:50.140Z,1.00
2018-01-21T21:07:18.110Z,0.90
2018-01-21T21:09:46.195Z,0.90
2018-01-21T21:12:14.178Z,0.80
2018-01-21T21:14:42.111Z,0.80
2018-01-21T21:17:10.184Z,0.80
2018-01-21T21:19:38.290Z,0.80
2018-01-21T21:22:07.458Z,0.90
2018-01-21T21:24:36.234Z,0.80
2018-01-21T21:27:04.203Z,0.80
2018-01-21T21:29:32.274Z,0.80
2018-01-21T21:32:00.296Z,0.80
2018-01-21T21:34:29.154Z,0.80
2018-01-21T21:36:58.630Z,0.80
2018-01-21T21:39:27.998Z,0.70
2018-01-21T21:41:58.249Z,0.70
2018-01-21T21:44:32.103Z,0.70
2018-01-21T21:47:15.907Z,0.60
2018-01-21T21:49:48.004Z,0.60
2018-01-21T21:52:20.090Z,0.60
2018-01-21T21:54:55.342Z,0.70
2018-01-21T21:57:30.562Z,0.60
2018-01-21T22:00:04.330Z,0.70
2018-01-21T22:02:36.698Z,0.70
2018-01-21T22:05:09.779Z,0.70
2018-01-21T22:07:45.689Z,0.70
2018-01-21T22:10:17.980Z,0.70
2018-01-21T22:12:47.572Z,0.70
2018-01-21T22:15:17.353Z,0.70
2018-01-21T22:18:00.727Z,0.70
2018-01-21T22:20:33.134Z,0.80
2018-01-21T22:23:02.456Z,0.70
2018-01-21T22:25:30.602Z,0.70
2018-01-21T22:28:02.549Z,0.70
2018-01-21T22:30:36.372Z,0.70
2018-01-21T22:33:05.955Z,0.70
2018-01-21T22:35:36.396Z,0.70
2018-01-21T22:38:06.103Z,0.70
2018-01-21T22:40:38.893Z,0.70
2018-01-21T22:43:09.422Z,0.80
2018-01-21T22:45:39.382Z,0.80
2018-01-21T22:48:07.570Z,0.90
2018-01-21T22:50:38.516Z,0.90
2018-01-21T22:53:07.853Z,0.90
2018-01-21T22:55:37.079Z,0.90
2018-01-21T22:58:09.347Z,0.80
2018-01-21T23:00:42.520Z,0.70
2018-01-21T23:03:18.357Z,0.70
2018-01-21T23:05:47.636Z,0.70
2018-01-21T23:08:18.348Z,0.70
2018-01-21T23:10:52.522Z,0.70
2018-01-21T23:13:23.509Z,0.70
2018-01-21T23:15:52.555Z,0.70
2018-01-21T23:18:21.598Z,0.60
2018-01-21T23:20:58.355Z,0.60
2018-01-21T23:23:29.952Z,0.60
2018-01-21T23:26:01.019Z,0.60
2018-01-21T23:28:36.278Z,0.50
2018-01-21T23:31:04.974Z,0.60
2018-01-21T23:33:41.279Z,0.60
2018-01-21T23:36:15.555Z,0.60
2018-01-21T23:38:44.496Z,0.60
2018-01-21T23:41:19.391Z,0.60
2018-01-21T23:43:49.777Z,0.60
2018-01-21T23:46:21.055Z,0.60
2018-01-21T23:48:50.155Z,0.60
2018-01-21T23:51:23.081Z,0.60
2018-01-21T23:53:53.594Z,0.60
2018-01-21T23:56:23.100Z,0.60
2018-01-21T23:59:00.238Z,0.60
